メインページ
METAR-TAF:

METAR-TAF

空港 :

リオデジャネイロ, リオデジャネイロ州, ブラジル

サントス・ドゥモン空港

緯度: 22-54S, 経度: 043-10W, 海抜: 3m

現時点の気象観測

当レポートは47分前の00:00(UTC)に作成
の風 9kt
気温 25°C
湿度 83%
気圧 1011 hPa
視程: 7000m
高度1100ftの千切れ雲あり
高度8000ftの千切れ雲あり

METAR: SBRJ 120000Z 17009KT 7000 BKN011 BKN080 25/22 Q1011

時間: 22:47 (00:47 UTC)

予報

当レポートは5時間2分前の19:45(UTC)に作成
予報は12日の 00時(UTC)から 12日の 12時(UTC)まで有効
南/南西の風 5kt
視程10km以上
高度2000ftの雲は散在している
12日の 01時(UTC)から 12日の 03時(UTC)まで徐々に
の風 5kt
視程: 7000m
高度1700ftの雲は散在している
高度2500ftの千切れ雲あり
12日の 08時(UTC)から 12日の 10時(UTC)まで徐々に
南/南東の風 5kt
視程: 5000m
高度1000ftの千切れ雲あり
霧雨, 靄

TAF: SBRJ 111945Z 1200/1212 21005KT 9999 SCT020 TN22/1208Z TX25/1212Z BECMG 1201/1203 19005KT 7000 SCT017 BKN025 BECMG 1208/1210 16005KT 5000 DZ BR BKN010 RMK PFV

4,000以上の空港の気象観測と天気予報(METAR報とTAF報)

利用可能な観測所は地図上に黄色い丸と赤い丸で示す。

丸の上にカーソルを重ねると観測所名を参照できる。

次にクリックすると気象観測と天気予報を参照できる。

マップの切り替え:黒色「×」印の緑ボタンをクリックして拡大、「-」印の緑ボタンをクリックして縮小、緑色の三角印をクリックして隣りの地図に切り替え


METAR-TAF: